Time;durP1;ratioP1;P1;durP2;ratioP2;P2;SDS_P1;SDS_P2;PMS_P1;PMS_P2;Temp;Humidity;BMP_temperature;BMP_pressure;BME280_temperature;BME280_humidity;BME280_pressure;Samples;Min_cycle;Max_cycle;Signal;HPM_P1;HPM_P2
2021/12/18 00:00:03;;;;;;;1.64;1.54;;;;;;;2.29;77.01;100264.02;449099;116;930390;-73
2021/12/18 00:01:07;;;;;;;1.74;1.64;;;;;;;2.30;77.03;100254.95;448179;116;923282;-73
2021/12/18 00:02:11;;;;;;;1.91;1.79;;;;;;;2.30;76.82;100260.33;448352;116;922641;-73
2021/12/18 00:03:14;;;;;;;1.87;1.72;;;;;;;2.30;76.76;100257.64;449002;116;923134;-73
2021/12/18 00:04:18;;;;;;;1.68;1.58;;;;;;;2.30;76.75;100257.64;449597;116;922526;-73
2021/12/18 00:05:21;;;;;;;1.66;1.56;;;;;;;2.30;76.74;100263.02;440133;118;930316;-74
2021/12/18 00:06:28;;;;;;;1.72;1.62;;;;;;;2.29;76.74;100261.33;431033;122;923200;-73
2021/12/18 00:07:31;;;;;;;1.57;1.47;;;;;;;2.29;76.76;100264.86;441422;118;922707;-74
2021/12/18 00:08:36;;;;;;;1.74;1.64;;;;;;;2.30;76.81;100258.48;432214;120;922564;-74
2021/12/18 00:09:41;;;;;;;2.01;1.71;;;;;;;2.32;76.81;100266.36;430369;121;923444;-73
2021/12/18 00:10:45;;;;;;;1.75;1.54;;;;;;;2.33;76.81;100257.28;440291;118;922624;-74
2021/12/18 00:11:50;;;;;;;1.56;1.41;;;;;;;2.34;76.79;100265.20;432476;120;922702;-74
2021/12/18 00:12:54;;;;;;;1.58;1.40;;;;;;;2.35;76.81;100268.73;439946;118;922874;-74
2021/12/18 00:13:58;;;;;;;1.39;1.29;;;;;;;2.37;76.81;100266.72;432546;120;922724;-74
2021/12/18 00:15:02;;;;;;;1.45;1.35;;;;;;;2.37;76.77;100272.91;440880;118;922626;-73
2021/12/18 00:16:07;;;;;;;1.36;1.22;;;;;;;2.37;76.70;100267.53;432343;120;923124;-74
2021/12/18 00:17:10;;;;;;;1.54;1.44;;;;;;;2.37;76.72;100266.72;440666;118;923225;-73
2021/12/18 00:18:13;;;;;;;1.51;1.41;;;;;;;2.36;76.71;100271.26;433416;120;922644;-73
2021/12/18 00:19:23;;;;;;;1.52;1.42;;;;;;;2.36;76.79;100268.56;440813;118;924564;-74
2021/12/18 00:20:26;;;;;;;1.60;1.49;;;;;;;2.34;76.63;100273.27;442673;118;930548;-73
2021/12/18 00:21:30;;;;;;;1.76;1.66;;;;;;;2.34;76.57;100267.04;444971;118;922931;-73
2021/12/18 00:22:34;;;;;;;1.59;1.49;;;;;;;2.34;76.88;100267.04;444698;116;922649;-74
2021/12/18 00:23:37;;;;;;;1.54;1.44;;;;;;;2.35;76.91;100269.57;445467;118;930293;-73
2021/12/18 00:24:41;;;;;;;1.41;1.31;;;;;;;2.35;76.89;100264.19;445319;118;930317;-73
2021/12/18 00:25:44;;;;;;;1.51;1.41;;;;;;;2.36;76.91;100263.19;451268;117;930279;-74
2021/12/18 00:26:48;;;;;;;1.62;1.52;;;;;;;2.36;76.88;100260.49;451675;117;922860;-74
2021/12/18 00:27:51;;;;;;;1.30;1.20;;;;;;;2.35;76.82;100264.19;451394;117;922583;-74
2021/12/18 00:28:54;;;;;;;1.24;1.16;;;;;;;2.33;76.83;100265.36;451372;116;922933;-73
2021/12/18 00:29:58;;;;;;;1.26;1.21;;;;;;;2.32;76.80;100269.05;451277;116;922662;-74
2021/12/18 00:31:01;;;;;;;1.38;1.28;;;;;;;2.30;76.79;100265.70;451214;116;925374;-74
2021/12/18 00:32:05;;;;;;;1.54;1.44;;;;;;;2.28;76.87;100263.18;451857;117;930739;-73
2021/12/18 00:33:09;;;;;;;1.68;1.46;;;;;;;2.29;76.97;100264.02;450819;116;922556;-74
2021/12/18 00:34:12;;;;;;;1.60;1.47;;;;;;;2.30;77.08;100263.02;451208;117;922581;-74
2021/12/18 00:35:17;;;;;;;5.79;1.64;;;;;;;2.32;77.08;100263.67;451531;116;930537;-73
2021/12/18 00:36:21;;;;;;;1.54;1.44;;;;;;;2.33;76.99;100259.97;451132;117;922697;-73
2021/12/18 00:37:25;;;;;;;1.76;1.61;;;;;;;2.32;76.99;100267.20;451545;116;922587;-73
2021/12/18 00:38:29;;;;;;;1.47;1.37;;;;;;;2.34;77.02;100262.50;451623;116;930442;-74
2021/12/18 00:39:34;;;;;;;1.83;1.73;;;;;;;2.34;76.90;100264.35;450559;117;928654;-75
2021/12/18 00:40:46;;;;;;;1.25;1.15;;;;;;;2.33;76.80;100263.50;451555;117;922514;-75
2021/12/18 00:42:07;;;;;;;1.56;1.46;;;;;;;2.32;76.82;100264.51;451828;116;922732;-75
2021/12/18 00:43:13;;;;;;;1.58;1.48;;;;;;;2.33;76.95;100271.58;449678;116;922507;-75
2021/12/18 00:44:07;;;;;;;1.86;1.72;;;;;;;2.36;76.93;100273.11;451295;116;923160;-74
2021/12/18 00:45:14;;;;;;;1.74;1.64;;;;;;;2.35;76.75;100274.11;451619;117;922756;-73
2021/12/18 00:46:18;;;;;;;1.78;1.64;;;;;;;2.34;76.69;100267.04;451435;116;922567;-73
2021/12/18 00:47:21;;;;;;;1.54;1.44;;;;;;;2.31;76.67;100280.84;451549;117;922714;-73
2021/12/18 00:48:25;;;;;;;2.20;1.88;;;;;;;2.30;76.69;100279.16;451413;116;922737;-74
2021/12/18 00:49:28;;;;;;;2.08;1.98;;;;;;;2.30;76.66;100279.16;452015;117;922745;-73
2021/12/18 00:50:33;;;;;;;1.67;1.56;;;;;;;2.28;76.62;100279.31;452238;116;922774;-73
2021/12/18 00:51:36;;;;;;;1.95;1.75;;;;;;;2.28;76.69;100283.85;451339;117;923099;-73
2021/12/18 00:52:40;;;;;;;2.09;1.98;;;;;;;2.27;76.82;100282.17;451141;116;923076;-72
2021/12/18 00:53:43;;;;;;;1.93;1.81;;;;;;;2.28;76.77;100278.47;450942;116;923158;-74
2021/12/18 00:54:47;;;;;;;2.10;1.94;;;;;;;2.27;77.27;100274.94;451106;115;925031;-72
2021/12/18 00:55:52;;;;;;;2.21;2.01;;;;;;;2.26;77.65;100275.94;451100;116;923047;-74
2021/12/18 00:56:55;;;;;;;2.15;1.95;;;;;;;2.27;77.96;100284.86;450479;117;923290;-73
2021/12/18 00:57:59;;;;;;;1.99;1.87;;;;;;;2.27;78.06;100287.55;451110;117;922501;-74
2021/12/18 00:59:02;;;;;;;1.78;1.68;;;;;;;2.25;78.37;100285.05;445895;116;923097;-75
2021/12/18 01:00:09;;;;;;;1.58;1.45;;;;;;;2.25;78.39;100279.67;443794;118;922961;-74
2021/12/18 01:01:13;;;;;;;1.60;1.50;;;;;;;2.25;78.55;100284.20;445315;117;922859;-74
2021/12/18 01:02:16;;;;;;;1.96;1.83;;;;;;;2.25;78.61;100286.89;451644;117;922641;-73
2021/12/18 01:03:21;;;;;;;1.80;1.70;;;;;;;2.23;78.76;100283.52;451235;117;923224;-73
2021/12/18 01:04:26;;;;;;;1.86;1.76;;;;;;;2.25;79.08;100281.52;451738;116;930694;-74
2021/12/18 01:05:31;;;;;;;1.48;1.38;;;;;;;2.27;79.27;100284.86;451882;117;922628;-74
2021/12/18 01:06:35;;;;;;;2.18;1.79;;;;;;;2.29;79.24;100288.23;450492;117;930366;-74
2021/12/18 01:07:39;;;;;;;1.69;1.59;;;;;;;2.29;79.11;100285.55;451596;117;922877;-73
2021/12/18 01:08:42;;;;;;;1.63;1.53;;;;;;;2.28;79.16;100289.23;451288;116;928184;-73
2021/12/18 01:12:43;;;;;;;1.58;1.48;;;;;;;2.24;78.93;100287.90;452114;117;922607;-73
2021/12/18 01:14:08;;;;;;;1.43;1.33;;;;;;;2.21;78.95;100290.91;451376;116;922871;-73
2021/12/18 01:16:06;;;;;;;1.39;1.32;;;;;;;2.18;79.08;100291.26;446487;116;922745;-73
2021/12/18 01:23:39;;;;;;;1.27;1.17;;;;;;;2.15;79.41;100294.30;445886;118;922729;-73
2021/12/18 01:24:43;;;;;;;1.56;1.25;;;;;;;2.16;79.54;100295.95;453125;115;922684;-73
2021/12/18 01:25:46;;;;;;;1.18;0.98;;;;;;;2.16;79.45;100301.33;455206;115;930169;-73
2021/12/18 01:26:50;;;;;;;1.00;0.97;;;;;;;2.17;79.51;100301.17;455626;115;922481;-75
2021/12/18 01:27:53;;;;;;;1.39;1.29;;;;;;;2.16;79.78;100301.33;453868;115;930158;-74
2021/12/18 01:28:57;;;;;;;1.13;1.05;;;;;;;2.14;80.11;100308.75;455348;115;922571;-73
2021/12/18 01:30:00;;;;;;;1.19;1.08;;;;;;;2.12;80.25;100302.69;454875;115;923040;-73
2021/12/18 01:31:03;;;;;;;1.09;1.00;;;;;;;2.10;80.40;100306.38;454268;115;930158;-73
2021/12/18 01:32:08;;;;;;;1.07;1.07;;;;;;;2.10;80.69;100308.22;452470;115;922545;-73
2021/12/18 01:33:12;;;;;;;1.21;1.11;;;;;;;2.10;80.83;100302.84;445836;117;922770;-73
2021/12/18 01:34:15;;;;;;;1.33;1.23;;;;;;;2.09;81.05;100303.88;453885;115;922734;-73
2021/12/18 01:35:19;;;;;;;0.98;0.97;;;;;;;2.10;81.21;100302.84;452285;115;922457;-73
2021/12/18 01:36:22;;;;;;;1.14;1.11;;;;;;;2.11;81.20;100304.53;444587;117;923168;-73
2021/12/18 01:37:26;;;;;;;1.16;1.10;;;;;;;2.12;81.04;100302.69;452037;115;922597;-73
2021/12/18 01:38:31;;;;;;;1.38;1.28;;;;;;;2.09;81.01;100296.62;452396;115;922662;-73
2021/12/18 01:39:35;;;;;;;1.26;1.16;;;;;;;2.09;80.88;100304.69;452863;115;922582;-73
2021/12/18 01:40:39;;;;;;;1.40;1.30;;;;;;;2.08;81.05;100302.19;444939;117;922611;-73
2021/12/18 01:47:02;;;;;;;1.39;1.29;;;;;;;2.05;81.59;100297.97;453567;115;923078;-74
2021/12/18 01:53:06;;;;;;;1.58;1.48;;;;;;;1.99;81.52;100301.32;455266;115;922540;-74
2021/12/18 01:54:10;;;;;;;1.24;1.14;;;;;;;1.95;81.61;100299.98;453943;115;922643;-73
2021/12/18 01:55:13;;;;;;;1.74;1.61;;;;;;;1.94;81.79;100308.20;453041;115;922692;-73
2021/12/18 01:56:18;;;;;;;1.08;1.08;;;;;;;1.93;81.96;100304.67;453044;115;922558;-74
2021/12/18 01:57:22;;;;;;;1.46;1.35;;;;;;;1.93;81.81;100301.98;453491;115;922668;-74
2021/12/18 01:58:25;;;;;;;1.44;1.34;;;;;;;1.94;81.95;100308.20;453417;115;922615;-74
2021/12/18 01:59:34;;;;;;;1.54;1.17;;;;;;;1.94;82.20;100306.36;444902;117;922772;-74
2021/12/18 02:00:42;;;;;;;1.12;1.07;;;;;;;1.99;82.22;100311.23;445673;118;923392;-74
2021/12/18 02:01:46;;;;;;;1.67;1.47;;;;;;;2.00;82.12;100297.63;453022;115;923188;-74
2021/12/18 02:02:50;;;;;;;1.32;1.21;;;;;;;2.00;81.97;100308.39;445435;117;922750;-73
2021/12/18 02:03:53;;;;;;;1.24;1.11;;;;;;;2.01;81.94;100303.85;453398;115;930206;-74
2021/12/18 02:04:58;;;;;;;1.31;1.04;;;;;;;2.02;82.07;100302.85;452984;115;930287;-73
2021/12/18 02:06:01;;;;;;;1.41;1.31;;;;;;;2.04;82.13;100295.47;453737;115;922625;-73
2021/12/18 02:07:07;;;;;;;1.30;1.20;;;;;;;2.06;82.19;100302.34;454485;115;930196;-74
2021/12/18 02:08:10;;;;;;;2.06;1.71;;;;;;;2.08;82.07;100305.72;445854;116;923322;-73
2021/12/18 02:09:13;;;;;;;1.59;1.31;;;;;;;2.10;81.87;100303.69;453279;115;923179;-72
2021/12/18 02:10:22;;;;;;;1.59;1.49;;;;;;;2.12;81.83;100299.99;454948;115;922614;-73
2021/12/18 02:12:46;;;;;;;1.99;1.53;;;;;;;2.10;81.27;100302.84;455226;115;922579;-73
2021/12/18 02:13:58;;;;;;;1.27;1.21;;;;;;;2.09;81.27;100296.62;452621;115;922533;-75
2021/12/18 02:20:37;;;;;;;1.83;1.72;;;;;;;2.10;81.49;100297.46;454080;115;922585;-73
2021/12/18 02:21:31;;;;;;;1.47;1.37;;;;;;;2.09;81.35;100302.00;446004;116;922742;-73
2021/12/18 02:22:34;;;;;;;1.58;1.48;;;;;;;2.10;81.32;100309.06;447878;116;922584;-71
2021/12/18 02:23:38;;;;;;;1.49;1.39;;;;;;;2.09;81.12;100309.25;446753;116;930461;-73
2021/12/18 02:24:42;;;;;;;1.50;1.40;;;;;;;2.07;81.17;100301.34;447420;117;922761;-73
2021/12/18 02:25:47;;;;;;;1.69;1.59;;;;;;;2.07;81.03;100309.41;447416;116;922585;-74
2021/12/18 02:26:50;;;;;;;1.49;1.39;;;;;;;2.05;80.65;100314.10;447397;116;922669;-73
2021/12/18 02:27:55;;;;;;;1.44;1.34;;;;;;;2.03;80.70;100307.23;447716;118;922969;-73
2021/12/18 02:29:02;;;;;;;1.65;1.47;;;;;;;2.01;80.83;100307.38;448043;116;922766;-74
2021/12/18 02:30:05;;;;;;;1.39;1.29;;;;;;;2.03;80.99;100308.07;447014;116;922662;-73
2021/12/18 02:31:09;;;;;;;1.75;1.51;;;;;;;2.06;81.04;100314.95;438176;118;922705;-73
2021/12/18 02:32:15;;;;;;;1.96;1.76;;;;;;;2.08;80.91;100312.95;438607;118;923219;-72
2021/12/18 02:33:19;;;;;;;1.54;1.43;;;;;;;2.09;80.64;100323.52;448210;116;930627;-70
2021/12/18 02:34:28;;;;;;;1.62;1.52;;;;;;;2.10;80.61;100310.91;448051;116;922786;-74
2021/12/18 02:35:31;;;;;;;1.60;1.50;;;;;;;2.10;80.49;100305.53;448001;116;922591;-72
2021/12/18 02:36:34;;;;;;;1.91;1.81;;;;;;;2.10;80.44;100314.44;448100;116;922660;-73
2021/12/18 02:37:42;;;;;;;1.81;1.71;;;;;;;2.11;80.16;100309.91;448405;116;922803;-73
2021/12/18 02:40:51;;;;;;;1.41;1.31;;;;;;;2.13;80.11;100315.13;447985;116;922571;-73
2021/12/18 02:41:12;;;;;;;1.86;1.23;;;;;;;2.14;80.13;100319.50;444526;116;922694;-73
2021/12/18 02:42:10;;;;;;;1.26;1.16;;;;;;;2.16;80.06;100314.78;446303;116;922636;-73
2021/12/18 02:43:13;;;;;;;1.41;1.23;;;;;;;2.17;80.17;100324.53;447890;116;922766;-73
2021/12/18 02:44:17;;;;;;;1.36;1.26;;;;;;;2.20;80.25;100322.37;448193;116;922694;-73
2021/12/18 02:45:21;;;;;;;1.21;1.11;;;;;;;2.22;80.14;100319.49;448490;116;930329;-73
2021/12/18 02:46:25;;;;;;;1.43;1.33;;;;;;;2.24;80.06;100322.87;448367;116;922569;-74
2021/12/18 02:47:29;;;;;;;1.48;1.32;;;;;;;2.27;80.08;100330.59;447716;116;922719;-74
2021/12/18 02:48:34;;;;;;;1.51;1.41;;;;;;;2.27;79.80;100333.27;447959;116;922727;-73
2021/12/18 02:49:44;;;;;;;1.16;1.10;;;;;;;2.25;79.35;100333.47;447857;116;923054;-73
2021/12/18 02:50:47;;;;;;;1.01;1.00;;;;;;;2.24;79.19;100328.25;447164;116;922625;-73
2021/12/18 02:51:51;;;;;;;1.22;1.09;;;;;;;2.19;79.07;100330.59;448084;116;923080;-74
2021/12/18 02:52:54;;;;;;;1.09;1.07;;;;;;;2.17;78.80;100329.91;448125;116;922707;-73
2021/12/18 02:53:57;;;;;;;1.40;1.30;;;;;;;2.14;79.01;100332.95;447814;116;922575;-73
2021/12/18 02:55:01;;;;;;;1.10;1.05;;;;;;;2.12;79.19;100326.89;447736;116;922624;-73
2021/12/18 02:56:06;;;;;;;1.28;1.17;;;;;;;2.10;79.18;100333.27;448056;116;923013;-74
2021/12/18 02:57:10;;;;;;;0.89;0.86;;;;;;;2.10;79.22;100332.42;448366;116;922851;-74
2021/12/18 02:58:13;;;;;;;1.16;1.00;;;;;;;2.09;79.17;100339.64;447849;116;930638;-72
2021/12/18 02:59:17;;;;;;;1.14;1.10;;;;;;;2.09;79.36;100331.58;448309;116;922600;-74
2021/12/18 03:00:24;;;;;;;0.97;0.97;;;;;;;2.12;79.54;100338.48;439500;118;923590;-72
2021/12/18 03:01:28;;;;;;;0.78;0.78;;;;;;;2.15;79.53;100337.33;440451;118;922842;-72
2021/12/18 03:02:37;;;;;;;1.06;1.01;;;;;;;2.17;79.60;100344.20;448490;116;923090;-73
2021/12/18 03:03:39;;;;;;;0.81;0.81;;;;;;;2.18;79.51;100343.20;447576;116;923100;-73
2021/12/18 03:04:45;;;;;;;1.08;0.99;;;;;;;2.20;79.55;100343.05;448389;116;922922;-73
2021/12/18 03:06:01;;;;;;;1.28;1.18;;;;;;;2.21;79.24;100342.02;447646;116;922602;-73
2021/12/18 03:07:00;;;;;;;0.86;0.86;;;;;;;2.21;78.67;100340.16;446918;116;922705;-73
2021/12/18 03:08:09;;;;;;;0.89;0.89;;;;;;;2.20;78.72;100348.42;448327;116;922638;-73
2021/12/18 03:24:34;;;;;;;0.73;0.73;;;;;;;2.05;79.16;100367.89;443805;116;922652;-72
2021/12/18 03:25:38;;;;;;;1.12;0.90;;;;;;;2.05;78.95;100369.73;447866;116;922629;-70
2021/12/18 03:26:41;;;;;;;1.13;1.03;;;;;;;2.03;79.11;100372.61;448237;116;922933;-73
2021/12/18 03:27:45;;;;;;;1.12;1.06;;;;;;;2.04;79.17;100371.58;448004;117;922588;-71
2021/12/18 03:28:48;;;;;;;0.95;0.95;;;;;;;2.05;79.16;100369.73;447413;116;930217;-72
2021/12/18 03:29:52;;;;;;;1.22;1.10;;;;;;;2.05;79.19;100375.95;447413;116;922872;-72
2021/12/18 03:30:56;;;;;;;1.08;0.96;;;;;;;2.08;79.19;100369.42;447244;116;922698;-73
2021/12/18 03:32:00;;;;;;;1.75;0.99;;;;;;;2.09;79.26;100373.80;447667;117;930199;-73
2021/12/18 03:33:04;;;;;;;0.94;0.85;;;;;;;2.11;79.10;100377.14;447891;116;922537;-73
2021/12/18 03:34:07;;;;;;;1.13;1.03;;;;;;;2.10;78.96;100368.23;447944;117;930247;-73
2021/12/18 03:35:11;;;;;;;1.04;0.93;;;;;;;2.10;78.90;100376.30;447637;116;922914;-73
2021/12/18 03:36:15;;;;;;;1.08;1.01;;;;;;;2.11;78.96;100377.14;447867;116;930381;-74
2021/12/18 03:37:19;;;;;;;0.91;0.91;;;;;;;2.14;78.63;100384.05;447491;116;923159;-72
2021/12/18 03:38:24;;;;;;;0.99;0.98;;;;;;;2.12;78.69;100370.77;447472;116;930240;-71
2021/12/18 03:39:27;;;;;;;1.46;1.36;;;;;;;2.12;78.52;100380.67;447511;117;922618;-73
2021/12/18 03:40:31;;;;;;;1.15;0.99;;;;;;;2.10;78.49;100380.83;447603;116;923043;-72
2021/12/18 03:41:34;;;;;;;1.05;0.96;;;;;;;2.08;78.42;100381.02;447848;116;924086;-72
2021/12/18 03:42:38;;;;;;;0.99;0.98;;;;;;;2.05;78.38;100381.33;447712;116;922509;-72
2021/12/18 03:43:42;;;;;;;1.34;1.08;;;;;;;2.02;78.73;100380.83;446252;116;923022;-72
2021/12/18 03:44:45;;;;;;;0.95;0.94;;;;;;;2.02;79.09;100388.89;447449;116;922633;-73
2021/12/18 03:45:48;;;;;;;1.00;1.00;;;;;;;2.00;79.77;100385.52;447676;116;922833;-73
2021/12/18 03:46:52;;;;;;;1.12;1.08;;;;;;;1.98;80.15;100390.24;447776;117;922683;-72
2021/12/18 03:47:55;;;;;;;0.91;0.88;;;;;;;1.96;80.60;100392.23;447649;116;930298;-73
2021/12/18 03:48:59;;;;;;;1.22;1.12;;;;;;;1.94;81.05;100389.70;447396;116;930530;-73
2021/12/18 03:50:03;;;;;;;1.02;0.96;;;;;;;1.94;81.31;100389.70;447412;116;930266;-73
2021/12/18 03:51:07;;;;;;;1.45;1.35;;;;;;;1.94;81.53;100389.70;447491;116;922515;-73
2021/12/18 03:52:10;;;;;;;1.17;1.12;;;;;;;1.97;81.78;100391.24;447506;116;922681;-73
2021/12/18 03:53:14;;;;;;;0.99;0.98;;;;;;;1.99;81.39;100390.05;447389;116;922647;-73
2021/12/18 03:54:17;;;;;;;1.04;0.92;;;;;;;1.95;82.05;100396.77;447375;116;922736;-73
2021/12/18 03:55:20;;;;;;;1.54;1.44;;;;;;;1.88;82.75;100393.05;447709;117;922596;-73
2021/12/18 03:56:24;;;;;;;1.17;1.07;;;;;;;1.82;83.33;100399.07;448024;116;922662;-73
2021/12/18 03:57:27;;;;;;;1.16;1.06;;;;;;;1.79;83.79;100401.25;440263;118;930330;-73
2021/12/18 03:58:31;;;;;;;1.74;1.61;;;;;;;1.76;83.90;100407.81;428386;121;922673;-72
2021/12/18 03:59:34;;;;;;;1.48;1.38;;;;;;;1.74;84.30;100403.59;438374;118;930252;-74
2021/12/18 04:00:37;;;;;;;2.05;1.86;;;;;;;1.74;84.72;100403.59;438436;118;922715;-73
2021/12/18 04:01:40;;;;;;;1.67;1.57;;;;;;;1.73;84.62;100404.59;438171;119;922727;-73
2021/12/18 04:02:45;;;;;;;1.53;1.43;;;;;;;1.73;85.02;100407.28;438372;118;922647;-73
2021/12/18 04:03:48;;;;;;;1.91;1.72;;;;;;;1.71;85.22;100410.12;438420;118;922551;-73
2021/12/18 04:04:52;;;;;;;2.15;1.95;;;;;;;1.72;85.31;100406.43;437740;119;928127;-74
2021/12/18 04:05:56;;;;;;;1.97;1.59;;;;;;;1.71;85.41;100410.12;437599;118;930465;-73
2021/12/18 04:07:00;;;;;;;1.39;1.34;;;;;;;1.71;85.33;100403.94;438521;119;922736;-73
2021/12/18 04:08:09;;;;;;;1.45;1.35;;;;;;;1.70;85.18;100404.92;438655;119;922742;-74
2021/12/18 04:09:13;;;;;;;1.73;1.63;;;;;;;1.69;85.31;100414.83;438137;118;922613;-72
2021/12/18 04:10:18;;;;;;;1.83;1.73;;;;;;;1.71;85.54;100411.99;438196;119;922914;-72
2021/12/18 04:11:21;;;;;;;1.31;1.25;;;;;;;1.74;85.65;100411.66;438110;118;923438;-72
2021/12/18 04:12:25;;;;;;;2.23;1.54;;;;;;;1.74;85.52;100415.19;438295;119;930169;-73
2021/12/18 04:13:29;;;;;;;1.56;1.46;;;;;;;1.73;85.04;100408.12;437844;118;922578;-72
2021/12/18 04:14:33;;;;;;;1.48;1.38;;;;;;;1.74;84.97;100417.03;438495;119;922543;-72
2021/12/18 04:15:37;;;;;;;1.20;1.16;;;;;;;1.73;85.10;100413.50;438423;118;922764;-73
2021/12/18 04:16:41;;;;;;;1.33;1.24;;;;;;;1.77;85.21;100419.38;437692;121;930681;-74
2021/12/18 04:17:44;;;;;;;1.36;1.24;;;;;;;1.80;84.98;100424.45;438452;119;922719;-73
2021/12/18 04:18:48;;;;;;;1.54;1.44;;;;;;;1.81;84.90;100424.30;438219;118;922565;-73
2021/12/18 04:19:51;;;;;;;1.57;1.47;;;;;;;1.82;84.70;100419.77;436354;119;922892;-73
2021/12/18 04:20:55;;;;;;;1.71;1.61;;;;;;;1.82;84.74;100419.77;448759;115;922583;-73
2021/12/18 04:21:58;;;;;;;1.51;1.41;;;;;;;1.83;84.79;100424.95;451163;114;930372;-73
2021/12/18 04:23:01;;;;;;;1.47;1.37;;;;;;;1.84;84.76;100420.42;455448;114;923359;-73
2021/12/18 04:24:05;;;;;;;1.94;1.49;;;;;;;1.85;84.70;100422.11;456555;114;922695;-73
2021/12/18 04:25:09;;;;;;;1.59;1.49;;;;;;;1.83;84.48;100424.11;455856;114;928960;-72
2021/12/18 04:26:13;;;;;;;1.56;1.45;;;;;;;1.81;84.62;100412.70;455649;114;922570;-74
2021/12/18 04:27:16;;;;;;;2.06;1.96;;;;;;;1.81;84.25;100420.77;455696;114;922617;-74
2021/12/18 04:28:19;;;;;;;1.97;1.85;;;;;;;1.78;84.08;100419.23;455669;114;922832;-73
2021/12/18 04:29:23;;;;;;;1.76;1.66;;;;;;;1.79;84.25;100417.38;455101;114;930364;-73
2021/12/18 04:30:26;;;;;;;1.85;1.53;;;;;;;1.78;84.24;100419.23;454930;114;930505;-72
2021/12/18 04:31:32;;;;;;;1.92;1.80;;;;;;;1.79;84.21;100423.60;455244;114;922483;-71
2021/12/18 04:32:36;;;;;;;1.75;1.62;;;;;;;1.80;84.35;100422.61;453288;114;922613;-72
2021/12/18 04:33:39;;;;;;;1.81;1.71;;;;;;;1.81;84.26;100431.52;453287;114;922523;-74
2021/12/18 04:34:42;;;;;;;2.01;1.91;;;;;;;1.81;84.06;100426.98;454580;114;930545;-72
2021/12/18 04:35:46;;;;;;;2.21;1.79;;;;;;;1.81;84.13;100432.36;454098;114;922494;-74
2021/12/18 04:36:49;;;;;;;1.91;1.81;;;;;;;1.81;84.61;100431.52;454323;114;922651;-73
2021/12/18 04:37:53;;;;;;;1.87;1.77;;;;;;;1.81;84.71;100429.67;454266;114;930578;-73
2021/12/18 04:38:57;;;;;;;1.48;1.38;;;;;;;1.80;84.89;100436.05;454542;114;930448;-72
2021/12/18 04:40:01;;;;;;;1.83;1.73;;;;;;;1.82;84.84;100441.27;454634;114;922600;-72
2021/12/18 04:41:05;;;;;;;1.99;1.89;;;;;;;1.83;84.91;100438.39;454617;114;922628;-72
2021/12/18 04:42:10;;;;;;;1.97;1.78;;;;;;;1.85;84.97;100438.24;454041;114;923186;-73
2021/12/18 04:43:13;;;;;;;1.61;1.51;;;;;;;1.86;85.00;100443.47;454376;114;922824;-72
2021/12/18 04:44:18;;;;;;;1.77;1.67;;;;;;;1.88;84.90;100440.59;445958;117;930337;-74
2021/12/18 04:45:21;;;;;;;1.79;1.68;;;;;;;1.90;84.91;100438.59;455867;114;928105;-71
2021/12/18 04:46:25;;;;;;;1.86;1.76;;;;;;;1.90;84.85;100447.50;455625;114;922785;-71
2021/12/18 04:47:28;;;;;;;1.83;1.72;;;;;;;1.92;84.77;100441.97;446370;117;922707;-72
2021/12/18 04:48:32;;;;;;;2.02;1.90;;;;;;;1.92;84.58;100450.88;457030;114;923212;-72
2021/12/18 04:49:35;;;;;;;1.77;1.67;;;;;;;1.92;84.56;100445.51;455266;114;922585;-72
2021/12/18 04:50:38;;;;;;;2.01;1.87;;;;;;;1.93;84.37;100447.17;455595;114;922562;-72
2021/12/18 04:51:42;;;;;;;1.81;1.71;;;;;;;1.94;84.30;100453.39;446483;117;930536;-73
2021/12/18 04:52:45;;;;;;;1.78;1.68;;;;;;;1.95;84.33;100442.48;445604;117;922733;-73
2021/12/18 04:53:49;;;;;;;2.44;2.24;;;;;;;1.98;84.21;100442.17;454758;114;923128;-73
2021/12/18 04:54:52;;;;;;;1.92;1.82;;;;;;;2.01;84.23;100446.36;444928;117;922564;-74
2021/12/18 04:55:56;;;;;;;1.81;1.71;;;;;;;2.02;83.97;100439.98;454039;114;922873;-71
2021/12/18 04:56:59;;;;;;;1.88;1.78;;;;;;;2.01;83.77;100436.45;453714;114;930538;-73
2021/12/18 04:58:03;;;;;;;1.79;1.69;;;;;;;2.02;83.76;100445.36;454122;114;930422;-73
2021/12/18 04:59:06;;;;;;;1.78;1.68;;;;;;;2.01;83.43;100449.05;453803;114;922795;-73
2021/12/18 05:00:13;;;;;;;1.75;1.65;;;;;;;2.00;83.45;100445.52;454275;114;930935;-73
2021/12/18 05:01:17;;;;;;;2.22;2.11;;;;;;;2.01;83.51;100449.90;455073;114;922707;-73
2021/12/18 05:02:25;;;;;;;2.36;2.15;;;;;;;2.05;83.56;100445.02;454704;114;923216;-73
2021/12/18 05:03:26;;;;;;;1.98;1.88;;;;;;;2.07;83.57;100443.87;455020;114;922603;-72
2021/12/18 05:04:30;;;;;;;1.91;1.81;;;;;;;2.08;83.44;100445.56;454618;114;922699;-73
2021/12/18 05:05:34;;;;;;;2.32;2.16;;;;;;;2.09;83.20;100441.84;455193;114;922590;-72
2021/12/18 05:06:43;;;;;;;2.31;2.14;;;;;;;2.12;83.12;100445.22;455483;114;930508;-73
2021/12/18 05:07:44;;;;;;;2.21;2.11;;;;;;;2.12;82.95;100451.44;455284;114;922823;-72
2021/12/18 05:08:48;;;;;;;2.16;1.99;;;;;;;2.14;82.66;100448.59;455502;114;923199;-73
2021/12/18 05:09:51;;;;;;;1.96;1.84;;;;;;;2.14;82.56;100456.66;455713;114;922910;-72
2021/12/18 05:10:55;;;;;;;2.00;1.90;;;;;;;2.14;82.58;100451.28;455412;114;930251;-74
2021/12/18 05:11:58;;;;;;;2.42;2.22;;;;;;;2.14;82.58;100452.13;454949;114;928926;-73
2021/12/18 05:13:02;;;;;;;2.37;2.19;;;;;;;2.16;82.35;100460.86;454856;114;922709;-74
2021/12/18 05:14:06;;;;;;;2.19;2.08;;;;;;;2.16;81.86;100458.17;456259;114;922953;-74
2021/12/18 05:15:10;;;;;;;2.04;1.91;;;;;;;2.15;81.85;100459.17;455399;114;922924;-75
2021/12/18 05:16:13;;;;;;;2.52;2.37;;;;;;;2.15;81.82;100467.23;456385;114;922598;-75
2021/12/18 05:17:17;;;;;;;2.51;2.29;;;;;;;2.15;81.82;100467.23;455486;114;930389;-74
2021/12/18 05:18:20;;;;;;;2.12;2.02;;;;;;;2.16;81.84;100465.39;456832;114;930523;-75
2021/12/18 05:19:24;;;;;;;2.36;2.16;;;;;;;2.16;81.88;100465.39;455093;114;922920;-75
2021/12/18 05:20:27;;;;;;;2.83;2.60;;;;;;;2.17;81.91;100467.93;454211;114;930410;-70
2021/12/18 05:21:31;;;;;;;2.31;2.11;;;;;;;2.19;81.93;100471.31;454820;114;922644;-76
2021/12/18 05:22:34;;;;;;;2.01;1.91;;;;;;;2.22;81.60;100467.43;451782;114;922589;-74
2021/12/18 05:23:37;;;;;;;2.29;2.09;;;;;;;2.23;81.27;100474.50;449099;116;923018;-74
2021/12/18 05:24:41;;;;;;;2.54;2.34;;;;;;;2.21;81.05;100474.66;440571;118;922766;-76
2021/12/18 05:25:44;;;;;;;2.07;1.94;;;;;;;2.20;80.89;100478.38;439658;118;923249;-73
2021/12/18 05:26:47;;;;;;;2.24;2.04;;;;;;;2.20;80.65;100474.84;440049;118;922818;-76
2021/12/18 05:27:51;;;;;;;2.49;2.06;;;;;;;2.19;80.40;100473.16;440037;118;930467;-76
2021/12/18 05:28:54;;;;;;;2.29;2.05;;;;;;;2.17;80.17;100476.00;431744;120;922896;-75
2021/12/18 05:29:58;;;;;;;2.64;2.44;;;;;;;2.17;80.25;100480.53;440620;118;931050;-77
2021/12/18 05:31:01;;;;;;;2.59;2.36;;;;;;;2.17;79.88;100480.53;434500;120;922369;-81
2021/12/18 05:32:05;;;;;;;2.65;2.44;;;;;;;2.15;79.93;100480.69;440765;119;922397;-74
2021/12/18 05:33:10;;;;;;;3.02;2.81;;;;;;;2.15;79.93;100472.62;441874;118;922971;-76
2021/12/18 05:34:20;;;;;;;3.07;2.84;;;;;;;2.16;79.70;100481.53;442246;118;922469;-77
2021/12/18 05:35:19;;;;;;;2.65;2.45;;;;;;;2.15;79.34;100487.94;442296;118;930109;-75
2021/12/18 05:36:35;;;;;;;2.56;2.36;;;;;;;2.12;79.33;100478.33;440329;118;922458;-76
2021/12/18 05:37:46;;;;;;;2.16;2.04;;;;;;;2.11;79.32;100484.71;440606;118;923049;-75
2021/12/18 05:38:47;;;;;;;2.28;2.16;;;;;;;2.12;79.40;100485.56;431669;120;923178;-74
2021/12/18 05:39:51;;;;;;;2.86;2.66;;;;;;;2.14;79.31;100492.47;439449;118;922645;-73
2021/12/18 05:40:54;;;;;;;2.64;2.44;;;;;;;2.15;79.28;100493.32;439359;118;922495;-77
2021/12/18 05:41:58;;;;;;;2.41;2.21;;;;;;;2.14;78.94;100486.25;439458;118;928124;-77